Time;durP1;ratioP1;P1;durP2;ratioP2;P2;SDS_P1;SDS_P2;PMS_P1;PMS_P2;Temp;Humidity;BMP_temperature;BMP_pressure;BME280_temperature;BME280_humidity;BME280_pressure;Samples;Min_cycle;Max_cycle;Signal;HPM_P1;HPM_P2
2022/12/04 00:01:29;;;;;;;87.05;25.77;;;;;;;-0.14;100.00;101667.53;5202770;28;20494;-75
2022/12/04 00:04:00;;;;;;;86.40;27.73;;;;;;;-0.13;100.00;101661.31;5202789;28;20391;-75
2022/12/04 00:06:32;;;;;;;104.88;28.95;;;;;;;-0.09;100.00;101668.16;5202730;28;20036;-75
2022/12/04 00:09:04;;;;;;;91.75;28.48;;;;;;;-0.08;100.00;101659.31;5202544;28;20059;-74
2022/12/04 00:11:35;;;;;;;95.97;28.73;;;;;;;-0.06;100.00;101657.44;5203119;28;20029;-74
2022/12/04 00:14:06;;;;;;;82.28;25.70;;;;;;;-0.05;100.00;101657.38;5202204;28;20053;-74
2022/12/04 00:16:36;;;;;;;97.15;28.10;;;;;;;-0.02;100.00;101662.47;5202539;28;20494;-75
2022/12/04 00:19:06;;;;;;;84.45;28.55;;;;;;;-0.01;100.00;101663.31;5202541;28;20042;-74
2022/12/04 00:21:37;;;;;;;85.60;28.83;;;;;;;0.01;100.00;101658.00;5203294;28;20622;-74
2022/12/04 00:24:07;;;;;;;89.88;26.67;;;;;;;0.03;100.00;101661.38;5202859;28;20479;-74
2022/12/04 00:26:38;;;;;;;102.75;28.55;;;;;;;0.05;100.00;101663.03;5202156;28;20022;-74
2022/12/04 00:29:08;;;;;;;97.57;28.83;;;;;;;0.06;100.00;101658.59;5202427;28;20433;-74
2022/12/04 00:31:39;;;;;;;80.57;26.58;;;;;;;0.05;100.00;101656.88;5202660;28;20068;-73
2022/12/04 00:34:10;;;;;;;80.38;27.13;;;;;;;0.04;100.00;101657.81;5202706;28;20029;-74
2022/12/04 00:36:40;;;;;;;86.10;27.17;;;;;;;0.05;100.00;101657.75;5202439;28;20025;-74
2022/12/04 00:39:11;;;;;;;85.07;28.15;;;;;;;0.06;100.00;101655.97;5202237;28;20034;-74
2022/12/04 00:41:41;;;;;;;92.45;30.10;;;;;;;0.06;100.00;101659.47;5202896;28;20416;-74
2022/12/04 00:44:12;;;;;;;96.78;27.75;;;;;;;0.05;100.00;101656.88;5202623;28;20467;-74
2022/12/04 00:46:42;;;;;;;92.70;28.42;;;;;;;0.04;100.00;101650.75;5202637;28;20523;-74
2022/12/04 00:49:12;;;;;;;82.43;26.73;;;;;;;0.02;100.00;101650.00;5202773;28;20032;-74
2022/12/04 00:51:43;;;;;;;92.40;27.73;;;;;;;0.02;100.00;101646.50;5202130;28;20326;-74
2022/12/04 00:54:13;;;;;;;95.55;30.08;;;;;;;0.01;100.00;101643.00;5202611;28;20022;-73
2022/12/04 00:56:44;;;;;;;102.57;28.25;;;;;;;-0.02;100.00;101641.38;5202290;28;20049;-74
2022/12/04 00:59:14;;;;;;;92.15;26.70;;;;;;;-0.01;100.00;101650.13;5202283;28;20033;-74
2022/12/04 01:01:45;;;;;;;95.68;27.27;;;;;;;-0.02;100.00;101651.06;5202883;28;20537;-75
2022/12/04 01:04:15;;;;;;;99.20;29.85;;;;;;;-0.01;100.00;101653.63;5201971;28;20025;-74
2022/12/04 01:06:46;;;;;;;95.70;29.55;;;;;;;-0.01;100.00;101655.41;5201200;28;20056;-74
2022/12/04 01:09:16;;;;;;;94.90;28.90;;;;;;;-0.01;100.00;101655.41;5202262;28;20108;-74
2022/12/04 01:11:47;;;;;;;96.63;28.73;;;;;;;-0.01;100.00;101656.25;5202593;28;20463;-74
2022/12/04 01:14:17;;;;;;;104.22;30.45;;;;;;;0.01;100.00;101653.56;5202366;28;20498;-74
2022/12/04 01:16:47;;;;;;;94.57;26.98;;;;;;;0.01;100.00;101656.22;5201554;28;20132;-73
2022/12/04 01:19:18;;;;;;;92.28;28.70;;;;;;;0.01;100.00;101661.47;5202119;28;20031;-73
2022/12/04 01:21:48;;;;;;;100.40;29.88;;;;;;;0.01;100.00;101656.22;5202596;28;20025;-74
2022/12/04 01:24:19;;;;;;;98.60;29.38;;;;;;;0.02;100.00;101657.06;5202095;28;20468;-73
2022/12/04 01:26:49;;;;;;;97.55;28.02;;;;;;;-0.01;100.00;101647.50;5204872;28;20216;-74
2022/12/04 01:29:20;;;;;;;97.95;29.00;;;;;;;0.01;100.00;101656.22;5205537;28;20311;-74
2022/12/04 01:31:50;;;;;;;98.85;28.25;;;;;;;0.00;100.00;101659.78;5206047;28;20017;-73
2022/12/04 01:34:21;;;;;;;89.05;29.48;;;;;;;-0.04;100.00;101645.88;5205848;28;20116;-74
2022/12/04 01:36:51;;;;;;;106.07;29.42;;;;;;;-0.08;100.00;101654.88;5205464;28;20406;-74
2022/12/04 01:39:22;;;;;;;95.03;28.77;;;;;;;-0.15;100.00;101637.69;5205429;28;20025;-74
2022/12/04 01:41:52;;;;;;;92.57;28.02;;;;;;;-0.18;100.00;101639.59;5205677;28;20467;-72
2022/12/04 01:44:24;;;;;;;100.85;28.75;;;;;;;-0.21;100.00;101634.47;5205557;28;20025;-73
2022/12/04 01:46:57;;;;;;;109.50;29.33;;;;;;;-0.26;100.00;101630.28;5205059;28;20136;-74
2022/12/04 01:49:48;;;;;;;99.72;30.88;;;;;;;-0.32;100.00;101633.22;5205547;28;20029;-73
2022/12/04 01:52:22;;;;;;;101.63;29.15;;;;;;;-0.33;100.00;101630.69;5205436;28;20118;-72
2022/12/04 01:54:59;;;;;;;94.10;28.90;;;;;;;-0.32;100.00;101633.22;5205443;28;20455;-72
2022/12/04 01:57:31;;;;;;;102.97;30.60;;;;;;;-0.30;100.00;101636.66;5205275;28;20021;-72
2022/12/04 02:00:10;;;;;;;104.60;29.38;;;;;;;-0.29;100.00;101633.09;5205168;28;20124;-73
2022/12/04 02:02:45;;;;;;;105.18;29.65;;;;;;;-0.20;100.00;101630.91;5205650;28;20029;-73
2022/12/04 02:05:18;;;;;;;;;;;;;;;-0.15;100.00;101639.44;5206186;28;20022;-73
2022/12/04 02:07:51;;;;;;;107.30;28.77;;;;;;;-0.08;100.00;101630.28;5205136;28;19999;-73
2022/12/04 02:10:30;;;;;;;107.65;30.60;;;;;;;-0.02;100.00;101629.97;5205400;28;20031;-73
2022/12/04 02:13:12;;;;;;;98.22;29.17;;;;;;;0.01;100.00;101629.81;5204948;28;20421;-72
2022/12/04 02:16:18;;;;;;;103.53;30.55;;;;;;;0.08;100.00;101617.16;5205252;28;20483;-72
2022/12/04 02:18:59;;;;;;;93.05;28.83;;;;;;;0.13;100.00;101629.16;5204878;28;20033;-73
2022/12/04 02:21:37;;;;;;;109.10;29.63;;;;;;;0.17;100.00;101636.00;5205122;28;20033;-73
2022/12/04 02:24:31;;;;;;;98.50;29.55;;;;;;;0.18;100.00;101632.41;5205182;28;20021;-73
2022/12/04 02:27:16;;;;;;;92.78;28.95;;;;;;;0.22;100.00;101633.97;5203054;28;20021;-73
2022/12/04 02:30:02;;;;;;;91.78;28.17;;;;;;;0.25;100.00;101641.75;5195101;28;20425;-72
2022/12/04 02:32:38;;;;;;;94.03;28.60;;;;;;;0.29;100.00;101644.19;5204852;28;20467;-72
2022/12/04 02:35:21;;;;;;;100.15;31.33;;;;;;;0.26;100.00;101634.69;5204660;28;20030;-73
2022/12/04 02:38:09;;;;;;;99.43;30.75;;;;;;;0.28;100.00;101631.94;5201214;28;20032;-73
2022/12/04 02:41:03;;;;;;;96.78;29.08;;;;;;;0.28;100.00;101616.97;5204046;28;20017;-73
2022/12/04 02:43:59;;;;;;;107.47;32.13;;;;;;;0.32;100.00;101621.16;5205012;28;20037;-72
2022/12/04 02:46:37;;;;;;;93.00;28.58;;;;;;;0.34;100.00;101619.25;5205038;28;20022;-73
2022/12/04 02:49:18;;;;;;;91.93;27.73;;;;;;;0.38;100.00;101614.69;5204450;28;20059;-74
2022/12/04 02:51:50;;;;;;;93.43;28.48;;;;;;;0.39;100.00;101609.31;5203625;28;20097;-72
2022/12/04 02:54:41;;;;;;;90.28;28.27;;;;;;;0.44;100.00;101611.72;5204091;28;20467;-73
2022/12/04 02:57:30;;;;;;;87.95;26.98;;;;;;;0.46;100.00;101609.84;5204307;28;20017;-73
2022/12/04 03:00:06;;;;;;;102.25;29.90;;;;;;;0.44;100.00;101615.19;5204351;28;20037;-73
2022/12/04 03:02:52;;;;;;;91.07;28.73;;;;;;;0.45;100.00;101618.69;5204182;28;20083;-73
2022/12/04 03:05:30;;;;;;;94.10;27.55;;;;;;;0.48;100.00;101622.03;5204463;28;20382;-72
2022/12/04 03:08:07;;;;;;;97.60;27.85;;;;;;;0.49;100.00;101614.94;5203928;28;20116;-73
2022/12/04 03:10:45;;;;;;;89.28;28.30;;;;;;;0.51;100.00;101616.59;5204231;28;20048;-73
2022/12/04 03:13:25;;;;;;;87.85;27.67;;;;;;;0.49;100.00;101620.22;5204373;28;20031;-73
2022/12/04 03:16:10;;;;;;;89.82;28.63;;;;;;;0.51;100.00;101619.22;5203842;28;20428;-74
2022/12/04 03:18:57;;;;;;;90.57;27.65;;;;;;;0.51;100.00;101623.66;5203807;28;20380;-74
2022/12/04 03:21:33;;;;;;;85.03;27.60;;;;;;;0.49;100.00;101621.09;5192239;28;20029;-74
2022/12/04 03:24:13;;;;;;;92.93;29.65;;;;;;;0.52;100.00;101604.25;5204345;28;20034;-73
2022/12/04 03:26:49;;;;;;;96.68;28.52;;;;;;;0.53;100.00;101611.22;5204069;28;20009;-74
2022/12/04 03:29:26;;;;;;;83.15;27.08;;;;;;;0.51;100.00;101597.25;5190329;28;20033;-73
2022/12/04 03:32:25;;;;;;;87.50;28.70;;;;;;;0.50;100.00;101606.97;5203277;28;20231;-73
2022/12/04 03:35:02;;;;;;;93.38;27.95;;;;;;;0.50;100.00;101601.69;5203586;28;20383;-73
2022/12/04 03:37:41;;;;;;;99.18;28.63;;;;;;;0.49;100.00;101599.97;5190630;28;20025;-73
2022/12/04 03:41:05;;;;;;;93.97;29.33;;;;;;;0.48;100.00;101606.19;5203370;28;20026;-74
2022/12/04 03:43:45;;;;;;;82.88;28.63;;;;;;;0.49;100.00;101607.88;5201114;28;20322;-73
2022/12/04 03:46:26;;;;;;;94.57;29.02;;;;;;;0.43;100.00;101616.13;5203777;28;20018;-73
2022/12/04 03:49:08;;;;;;;90.75;28.13;;;;;;;0.45;100.00;101609.00;5205721;28;20044;-74
2022/12/04 03:52:20;;;;;;;103.03;28.48;;;;;;;0.44;100.00;101604.63;5203584;28;20144;-73
2022/12/04 03:55:00;;;;;;;86.28;28.13;;;;;;;0.49;100.00;101607.03;5202668;28;20105;-73
2022/12/04 03:57:36;;;;;;;85.78;29.75;;;;;;;0.47;100.00;101608.91;5203189;28;20540;-72
2022/12/04 04:00:12;;;;;;;89.03;28.60;;;;;;;0.47;100.00;101609.75;5203233;28;20120;-73
2022/12/04 04:02:52;;;;;;;97.45;28.90;;;;;;;0.47;100.00;101611.56;5203654;28;20025;-72
2022/12/04 04:05:26;;;;;;;94.07;28.02;;;;;;;0.47;100.00;101611.56;5202833;28;20048;-73
2022/12/04 04:08:24;;;;;;;94.05;28.23;;;;;;;0.48;100.00;101611.47;5202857;28;20032;-73
2022/12/04 04:10:51;;;;;;;94.53;31.98;;;;;;;0.44;100.00;101606.44;5202969;28;20025;-72
2022/12/04 04:25:03;;;;;;;90.32;28.88;;;;;;;0.44;100.00;101611.72;5203112;28;20036;-73
2022/12/04 04:27:34;;;;;;;93.03;29.23;;;;;;;0.43;100.00;101605.56;5197153;28;20018;-72
2022/12/04 04:30:06;;;;;;;98.00;30.70;;;;;;;0.43;100.00;101610.84;5195796;28;20612;-72
2022/12/04 04:32:43;;;;;;;89.30;29.50;;;;;;;0.44;100.00;101611.72;5202609;28;20406;-73
2022/12/04 04:35:20;;;;;;;93.43;30.00;;;;;;;0.42;100.00;101606.53;5202908;28;20445;-73
2022/12/04 04:38:00;;;;;;;91.70;29.27;;;;;;;0.43;100.00;101607.38;5202929;28;20021;-73
2022/12/04 04:41:09;;;;;;;95.00;28.02;;;;;;;0.41;100.00;101611.91;5202866;28;20037;-73
2022/12/04 04:43:53;;;;;;;86.90;27.98;;;;;;;0.42;100.00;101609.16;5199267;28;20116;-73
2022/12/04 04:46:33;;;;;;;100.78;30.50;;;;;;;0.44;100.00;101606.44;5202781;28;20108;-72
2022/12/04 04:49:06;;;;;;;98.30;28.52;;;;;;;0.43;100.00;101602.94;5202957;28;20091;-72
2022/12/04 04:51:37;;;;;;;94.57;30.77;;;;;;;0.46;100.00;101604.56;5202905;28;20033;-72
2022/12/04 04:54:12;;;;;;;86.38;27.65;;;;;;;0.45;100.00;101608.13;5203181;28;20079;-73
2022/12/04 04:56:45;;;;;;;88.90;29.08;;;;;;;0.44;100.00;101611.72;5203313;28;20022;-73
2022/12/04 04:59:16;;;;;;;90.13;29.40;;;;;;;0.46;100.00;101615.97;5202949;28;20035;-73
2022/12/04 05:01:47;;;;;;;92.32;28.92;;;;;;;0.44;100.00;101615.19;5205768;28;20544;-73
2022/12/04 05:04:17;;;;;;;94.07;30.40;;;;;;;0.45;100.00;101613.41;5207054;28;20383;-72
2022/12/04 05:06:47;;;;;;;93.05;29.42;;;;;;;0.48;100.00;101613.25;5206833;28;20403;-73
2022/12/04 05:09:18;;;;;;;95.82;30.80;;;;;;;0.47;100.00;101611.56;5205641;28;20032;-73
2022/12/04 05:11:48;;;;;;;93.63;29.40;;;;;;;0.47;100.00;101604.47;5206754;28;20025;-73
2022/12/04 05:14:19;;;;;;;90.03;27.65;;;;;;;0.48;100.00;101607.97;5206115;28;20025;-73
2022/12/04 05:16:49;;;;;;;100.65;28.98;;;;;;;0.49;100.00;101607.88;5206055;28;20021;-73
2022/12/04 05:22:08;;;;;;;92.95;29.10;;;;;;;0.54;100.00;101612.91;5206708;28;20040;-73
2022/12/04 05:24:39;;;;;;;93.05;30.55;;;;;;;0.54;100.00;101602.34;5205992;28;20029;-73
2022/12/04 05:27:09;;;;;;;88.03;30.13;;;;;;;0.54;100.00;101602.34;5203177;28;20348;-74
2022/12/04 05:29:40;;;;;;;87.55;29.90;;;;;;;0.49;100.00;101607.03;5195632;28;20026;-73
2022/12/04 05:32:10;;;;;;;96.97;30.05;;;;;;;0.48;100.00;101600.91;5206262;28;20029;-73
2022/12/04 05:34:41;;;;;;;87.90;29.83;;;;;;;0.52;100.00;101601.59;5206394;28;20021;-72
2022/12/04 05:37:11;;;;;;;92.72;30.90;;;;;;;0.52;100.00;101604.25;5205703;28;20037;-73
2022/12/04 05:39:42;;;;;;;96.53;29.05;;;;;;;0.52;100.00;101607.72;5206150;28;20029;-72
2022/12/04 05:42:13;;;;;;;95.30;30.35;;;;;;;0.51;100.00;101605.19;5206089;28;20025;-71
2022/12/04 05:44:43;;;;;;;99.57;30.88;;;;;;;0.52;100.00;101598.97;5205969;28;20492;-71
2022/12/04 05:47:14;;;;;;;92.68;29.27;;;;;;;0.52;100.00;101594.53;5205477;28;20022;-72
2022/12/04 05:49:44;;;;;;;95.18;31.42;;;;;;;0.54;100.00;101593.59;5205837;28;20033;-71
2022/12/04 05:52:15;;;;;;;89.47;28.10;;;;;;;0.50;100.00;101592.88;5206073;28;20017;-71
2022/12/04 05:54:45;;;;;;;95.88;30.38;;;;;;;0.47;100.00;101591.28;5205889;28;20042;-72
2022/12/04 05:57:16;;;;;;;92.57;29.90;;;;;;;0.49;100.00;101578.00;5205439;28;20017;-72
2022/12/04 05:59:46;;;;;;;96.97;32.83;;;;;;;0.49;100.00;101584.13;5205476;28;20037;-71
2022/12/04 06:02:17;;;;;;;90.00;28.25;;;;;;;0.49;100.00;101589.41;5205572;28;20379;-72
2022/12/04 06:04:47;;;;;;;106.38;31.92;;;;;;;0.48;100.00;101587.69;5205631;28;20034;-71
2022/12/04 06:07:18;;;;;;;85.22;29.02;;;;;;;0.49;100.00;101585.91;5205138;28;20471;-71
2022/12/04 06:09:48;;;;;;;93.57;28.98;;;;;;;0.49;100.00;101583.28;5205187;28;20097;-72
2022/12/04 06:12:18;;;;;;;106.05;30.75;;;;;;;0.50;100.00;101587.59;5204583;28;20108;-72
2022/12/04 06:14:49;;;;;;;91.55;31.48;;;;;;;0.50;100.00;101592.88;5205096;28;20071;-71
2022/12/04 06:17:19;;;;;;;95.22;29.45;;;;;;;0.51;100.00;101591.97;5204510;28;20105;-72
2022/12/04 06:19:52;;;;;;;95.55;30.67;;;;;;;0.51;100.00;101592.81;5205266;28;20429;-72
2022/12/04 06:22:22;;;;;;;84.32;28.38;;;;;;;0.51;100.00;101597.25;5205069;28;20056;-72
2022/12/04 06:24:52;;;;;;;89.75;30.92;;;;;;;0.51;100.00;101602.53;5204859;28;20139;-72
2022/12/04 06:27:23;;;;;;;93.97;30.30;;;;;;;0.50;100.00;101599.06;5204552;28;20420;-71
2022/12/04 06:29:53;;;;;;;89.18;29.35;;;;;;;0.49;100.00;101597.31;5205181;28;20510;-72
2022/12/04 06:32:24;;;;;;;90.07;29.38;;;;;;;0.49;100.00;101599.13;5204815;28;20105;-72
2022/12/04 06:34:54;;;;;;;97.97;30.13;;;;;;;0.52;100.00;101598.97;5205085;28;20021;-72
2022/12/04 06:37:25;;;;;;;91.95;28.83;;;;;;;0.52;100.00;101599.81;5203898;28;20060;-72
2022/12/04 06:39:55;;;;;;;90.20;28.63;;;;;;;0.49;100.00;101594.69;5204792;28;20368;-72
2022/12/04 06:42:25;;;;;;;90.80;29.40;;;;;;;0.51;100.00;101610.47;5204583;28;20087;-72
2022/12/04 06:44:56;;;;;;;97.68;30.20;;;;;;;0.52;100.00;101606.88;5204330;28;20084;-72
2022/12/04 06:47:26;;;;;;;94.80;31.30;;;;;;;0.50;100.00;101609.59;5204042;28;20025;-71
2022/12/04 06:49:57;;;;;;;95.45;31.15;;;;;;;0.48;100.00;101610.63;5203796;28;20108;-71
2022/12/04 06:52:27;;;;;;;95.60;31.05;;;;;;;0.46;100.00;101607.22;5204222;28;20570;-72
2022/12/04 06:54:58;;;;;;;90.60;28.92;;;;;;;0.47;100.00;101612.41;5204183;28;20525;-72
2022/12/04 06:57:28;;;;;;;98.20;31.92;;;;;;;0.49;100.00;101613.16;5203759;28;20018;-72
2022/12/04 06:59:58;;;;;;;88.85;28.52;;;;;;;0.48;100.00;101608.81;5204153;28;20029;-72
2022/12/04 07:02:29;;;;;;;101.07;31.60;;;;;;;0.50;100.00;101600.81;5204256;28;20478;-72
2022/12/04 07:04:59;;;;;;;99.40;30.13;;;;;;;0.49;100.00;101599.13;5204176;28;20112;-72
2022/12/04 07:07:30;;;;;;;86.35;28.05;;;;;;;0.52;100.00;101598.97;5203650;28;20097;-72
2022/12/04 07:10:02;;;;;;;100.35;30.00;;;;;;;0.53;100.00;101603.28;5204178;28;20053;-72
2022/12/04 07:12:32;;;;;;;90.50;30.75;;;;;;;0.49;100.00;101604.38;5203860;28;20534;-72
2022/12/04 07:15:03;;;;;;;94.65;31.25;;;;;;;0.51;100.00;101605.19;5203673;28;20568;-72
2022/12/04 07:17:33;;;;;;;101.20;32.33;;;;;;;0.49;100.00;101604.38;5203238;28;20096;-72
2022/12/04 07:20:05;;;;;;;96.38;31.33;;;;;;;0.48;100.00;101614.09;5203986;28;20057;-72
2022/12/04 07:22:36;;;;;;;92.00;30.98;;;;;;;0.49;100.00;101621.09;5203279;28;20018;-72
2022/12/04 07:25:07;;;;;;;95.47;29.63;;;;;;;0.50;100.00;101622.81;5203608;28;20041;-72
2022/12/04 07:27:37;;;;;;;100.65;31.92;;;;;;;0.55;100.00;101630.47;5202619;28;20021;-72
2022/12/04 07:30:09;;;;;;;100.78;31.80;;;;;;;0.51;100.00;101626.31;5203757;28;20025;-72
2022/12/04 07:32:40;;;;;;;93.75;30.95;;;;;;;0.54;100.00;101622.63;5203455;28;20048;-72
2022/12/04 07:35:10;;;;;;;95.05;30.40;;;;;;;0.55;100.00;101626.97;5203565;28;20109;-72
2022/12/04 07:37:40;;;;;;;98.35;30.50;;;;;;;0.56;100.00;101626.91;5202786;28;20116;-72
2022/12/04 07:40:12;;;;;;;89.97;31.48;;;;;;;0.55;100.00;101624.31;5203455;28;20033;-71
2022/12/04 07:42:42;;;;;;;95.22;30.80;;;;;;;0.55;100.00;101625.19;5203377;28;20029;-72
2022/12/04 07:45:12;;;;;;;92.05;31.80;;;;;;;0.56;100.00;101628.69;5203389;28;20468;-72
2022/12/04 07:47:43;;;;;;;93.10;30.30;;;;;;;0.57;100.00;101630.41;5203097;28;20017;-72
2022/12/04 07:50:13;;;;;;;91.32;31.98;;;;;;;0.57;100.00;101640.97;5203092;28;20028;-74
2022/12/04 07:52:44;;;;;;;96.97;31.45;;;;;;;0.56;100.00;101644.53;5203357;28;20048;-72
2022/12/04 07:55:14;;;;;;;98.55;30.77;;;;;;;0.58;100.00;101642.66;5203195;28;20116;-72
2022/12/04 07:57:45;;;;;;;98.15;30.88;;;;;;;0.58;100.00;101638.22;5201531;28;20060;-73
2022/12/04 08:00:16;;;;;;;100.97;32.97;;;;;;;0.63;100.00;101649.38;5203377;28;20494;-73
2022/12/04 08:02:46;;;;;;;100.50;31.83;;;;;;;0.63;100.00;101651.19;5202963;28;20418;-72
2022/12/04 08:05:17;;;;;;;102.80;30.52;;;;;;;0.64;100.00;101650.25;5203186;28;20055;-72
2022/12/04 08:07:47;;;;;;;96.57;32.88;;;;;;;0.63;100.00;101648.53;5202732;28;20160;-72
2022/12/04 08:10:18;;;;;;;99.32;31.48;;;;;;;0.65;100.00;101642.25;5203156;28;20036;-73
2022/12/04 08:12:48;;;;;;;94.53;30.77;;;;;;;0.70;100.00;101647.25;5202786;28;20074;-72
2022/12/04 08:15:18;;;;;;;101.43;31.42;;;;;;;0.67;100.00;101644.81;5202653;28;20108;-72
2022/12/04 08:17:49;;;;;;;105.93;32.85;;;;;;;0.71;100.00;101643.72;5202084;28;20026;-71
2022/12/04 08:20:20;;;;;;;97.15;30.77;;;;;;;0.74;100.00;101646.16;5202869;28;20069;-71
2022/12/04 08:22:50;;;;;;;95.78;31.08;;;;;;;0.74;100.00;101646.16;5203119;28;20029;-71
2022/12/04 08:25:21;;;;;;;97.80;31.45;;;;;;;0.77;100.00;101649.50;5203074;28;20032;-71
2022/12/04 08:27:51;;;;;;;101.80;32.78;;;;;;;0.76;100.00;101647.81;5193844;28;20014;-71
2022/12/04 08:30:21;;;;;;;103.85;31.73;;;;;;;0.78;100.00;101645.91;5197526;28;20026;-71
2022/12/04 08:32:52;;;;;;;99.18;33.00;;;;;;;0.83;100.00;101655.38;5202648;28;20029;-71
2022/12/04 08:35:22;;;;;;;95.45;33.85;;;;;;;0.85;100.00;101653.50;5205400;28;20026;-71
2022/12/04 08:37:53;;;;;;;103.45;33.95;;;;;;;0.86;100.00;101648.16;5206433;28;20025;-72
2022/12/04 08:40:23;;;;;;;98.03;33.90;;;;;;;0.87;100.00;101649.00;5206448;28;20024;-72
2022/12/04 08:42:53;;;;;;;110.68;33.60;;;;;;;0.84;100.00;101659.72;5206801;28;20029;-72
2022/12/04 08:45:24;;;;;;;100.55;31.83;;;;;;;0.85;100.00;101654.34;5206552;28;20471;-72
2022/12/04 08:47:54;;;;;;;100.57;32.10;;;;;;;0.84;100.00;101654.44;5206618;28;20025;-72
2022/12/04 08:50:25;;;;;;;101.20;32.17;;;;;;;0.80;100.00;101655.53;5206701;28;20115;-72
2022/12/04 08:52:55;;;;;;;97.75;31.15;;;;;;;0.80;100.00;101656.38;5206359;28;20025;-72
2022/12/04 08:55:26;;;;;;;92.90;29.33;;;;;;;0.80;100.00;101658.19;5206577;28;20101;-72
2022/12/04 08:57:56;;;;;;;72.07;26.15;;;;;;;0.81;100.00;101658.13;5205831;28;20022;-72
2022/12/04 09:00:26;;;;;;;75.07;26.35;;;;;;;0.84;100.00;101654.44;5206734;28;20493;-72
2022/12/04 09:02:57;;;;;;;76.05;27.02;;;;;;;0.86;100.00;101656.06;5206460;28;20021;-72
2022/12/04 09:05:28;;;;;;;73.30;25.35;;;;;;;0.90;100.00;101654.94;5205142;28;20036;-72
2022/12/04 09:07:59;;;;;;;73.68;25.30;;;;;;;0.93;100.00;101648.66;5205793;28;20013;-72
2022/12/04 09:10:29;;;;;;;79.32;25.60;;;;;;;0.97;100.00;101643.13;5206508;28;20052;-72
2022/12/04 09:13:00;;;;;;;73.32;24.92;;;;;;;1.00;100.00;101648.25;5206473;28;20033;-72
2022/12/04 09:15:31;;;;;;;78.07;25.52;;;;;;;1.01;100.00;101644.66;5206683;28;20502;-72
2022/12/04 09:18:01;;;;;;;73.03;25.67;;;;;;;1.04;100.00;101649.75;5205089;28;20036;-72
2022/12/04 09:20:32;;;;;;;73.03;25.38;;;;;;;1.10;100.00;101651.19;5206131;28;20033;-72
2022/12/04 09:23:03;;;;;;;71.72;25.98;;;;;;;1.13;100.00;101651.03;5206270;28;20029;-72
2022/12/04 09:25:35;;;;;;;80.60;26.25;;;;;;;1.19;100.00;101653.34;5205786;28;20410;-72
2022/12/04 09:28:06;;;;;;;75.97;28.05;;;;;;;1.23;100.00;101657.50;5205935;28;20067;-72
2022/12/04 09:30:36;;;;;;;76.93;26.20;;;;;;;1.29;100.00;101654.53;5204784;28;20108;-72
2022/12/04 09:33:07;;;;;;;75.75;28.23;;;;;;;1.31;100.00;101656.25;5205773;28;20040;-72
2022/12/04 09:35:38;;;;;;;77.80;26.02;;;;;;;1.32;100.00;101652.66;5206024;28;20128;-72
2022/12/04 09:38:08;;;;;;;66.88;25.08;;;;;;;1.32;100.00;101650.00;5205275;28;20480;-72
2022/12/04 09:41:05;;;;;;;71.18;25.02;;;;;;;1.40;100.00;101666.28;5205423;28;20025;-72
2022/12/04 09:43:46;;;;;;;75.10;26.65;;;;;;;1.44;100.00;101665.16;5205882;28;20037;-72
2022/12/04 09:46:30;;;;;;;70.20;24.48;;;;;;;1.40;100.00;101667.13;5204965;28;20022;-72
2022/12/04 09:49:27;;;;;;;66.22;23.75;;;;;;;1.42;100.00;101656.47;5193507;28;20052;-72
2022/12/04 09:52:00;;;;;;;66.22;24.15;;;;;;;1.46;100.00;101652.72;5195658;28;20044;-72
2022/12/04 09:54:38;;;;;;;61.88;23.27;;;;;;;1.44;100.00;101655.44;5205526;28;20025;-72
2022/12/04 09:57:24;;;;;;;64.03;23.10;;;;;;;1.48;100.00;101658.78;5205714;28;20026;-72
2022/12/04 09:59:55;;;;;;;;;;;;;;;1.40;100.00;101647.78;5205987;28;20386;-72
2022/12/04 10:02:37;;;;;;;64.28;23.77;;;;;;;1.49;100.00;101655.19;5205845;28;19905;-72
2022/12/04 10:05:20;;;;;;;59.03;22.67;;;;;;;1.49;100.00;101661.31;5205784;28;20025;-72
2022/12/04 10:08:02;;;;;;;64.93;23.58;;;;;;;1.51;100.00;101655.97;5204609;28;20056;-72
2022/12/04 10:10:37;;;;;;;64.90;22.35;;;;;;;1.49;100.00;101647.25;5205534;28;20121;-72
2022/12/04 10:13:41;;;;;;;67.00;23.23;;;;;;;1.50;100.00;101648.94;5205486;28;20064;-72
2022/12/04 10:16:56;;;;;;;63.35;23.40;;;;;;;1.50;100.00;101655.09;5204803;28;20055;-72
2022/12/04 10:19:49;;;;;;;70.35;25.10;;;;;;;1.54;100.00;101656.63;5196928;28;20038;-72
2022/12/04 10:22:43;;;;;;;68.28;23.63;;;;;;;1.54;100.00;101661.91;5205410;28;20044;-72
2022/12/04 10:25:19;;;;;;;59.80;21.58;;;;;;;1.49;100.00;101660.47;5205112;28;20451;-72
2022/12/04 10:27:52;;;;;;;65.47;22.33;;;;;;;1.48;100.00;101661.41;5196830;28;20025;-73
2022/12/04 10:30:27;;;;;;;62.95;23.40;;;;;;;1.49;100.00;101663.13;5199925;28;20483;-72
2022/12/04 10:33:21;;;;;;;66.25;24.35;;;;;;;1.41;100.00;101668.84;5204448;28;20024;-72
2022/12/04 10:35:53;;;;;;;54.95;22.20;;;;;;;1.40;100.00;101663.63;5204472;28;20439;-72
2022/12/04 10:38:48;;;;;;;58.78;21.88;;;;;;;1.36;100.00;101664.78;5204366;28;20565;-72
2022/12/04 10:41:27;;;;;;;57.70;24.40;;;;;;;1.34;100.00;101658.69;5204911;28;20576;-72
2022/12/04 10:43:58;;;;;;;60.63;21.33;;;;;;;1.31;100.00;101658.88;5204787;28;20065;-72
2022/12/04 10:46:33;;;;;;;55.53;21.70;;;;;;;1.30;100.00;101655.38;5204578;28;20115;-72
2022/12/04 10:49:08;;;;;;;;;;;;;;;1.28;100.00;101651.97;5204838;28;20034;-72
2022/12/04 10:51:41;;;;;;;46.90;16.95;;;;;;;1.37;100.00;101651.44;5204840;28;20015;-72
2022/12/04 10:54:21;;;;;;;44.97;17.90;;;;;;;1.42;100.00;101648.56;5204822;28;20533;-72
2022/12/04 10:56:57;;;;;;;50.50;18.95;;;;;;;1.51;100.00;101642.75;5203985;28;20459;-72
2022/12/04 10:59:28;;;;;;;42.88;15.95;;;;;;;1.49;100.00;101645.44;5204403;28;20450;-72
2022/12/04 11:02:10;;;;;;;43.40;16.73;;;;;;;1.53;100.00;101635.56;5204365;28;20021;-72
2022/12/04 11:04:41;;;;;;;37.60;14.63;;;;;;;1.58;100.00;101640.59;5204258;28;20029;-72
2022/12/04 11:07:22;;;;;;;43.28;15.88;;;;;;;1.54;100.00;101640.75;5203754;28;20036;-72
2022/12/04 11:10:02;;;;;;;39.70;16.50;;;;;;;1.58;100.00;101637.94;5203833;28;20033;-72
2022/12/04 11:12:32;;;;;;;40.40;16.63;;;;;;;1.54;100.00;101637.25;5203799;28;20021;-72
2022/12/04 11:15:06;;;;;;;47.42;18.13;;;;;;;1.46;100.00;101642.16;5204212;28;20506;-72
2022/12/04 11:17:36;;;;;;;43.03;16.05;;;;;;;1.42;100.00;101637.97;5203608;28;20139;-72
2022/12/04 11:20:15;;;;;;;40.78;17.08;;;;;;;1.41;100.00;101634.47;5204001;28;20109;-72
2022/12/04 11:22:48;;;;;;;38.67;16.20;;;;;;;1.37;100.00;101635.59;5203979;28;20037;-73
2022/12/04 11:25:21;;;;;;;41.90;16.95;;;;;;;1.35;100.00;101632.16;5203895;28;20026;-72
2022/12/04 11:27:54;;;;;;;35.22;15.55;;;;;;;1.34;100.00;101634.91;5195679;28;20018;-73
2022/12/04 11:30:33;;;;;;;40.20;16.67;;;;;;;1.41;100.00;101633.63;5199656;28;20383;-73
2022/12/04 11:33:14;;;;;;;41.70;17.08;;;;;;;1.44;100.00;101623.72;5203772;28;20476;-72
2022/12/04 11:35:54;;;;;;;41.80;16.27;;;;;;;1.46;100.00;101626.28;5203779;28;20024;-72
2022/12/04 11:38:27;;;;;;;37.17;16.05;;;;;;;1.45;100.00;101627.19;5203109;28;20036;-72
2022/12/04 11:41:05;;;;;;;37.42;15.38;;;;;;;1.45;100.00;101629.84;5204185;28;20056;-72
2022/12/04 11:43:36;;;;;;;38.28;17.35;;;;;;;1.45;100.00;101637.78;5203540;28;20244;-72
2022/12/04 11:46:20;;;;;;;36.03;15.93;;;;;;;1.44;100.00;101633.44;5190377;28;20460;-72
2022/12/04 11:48:51;;;;;;;38.97;16.95;;;;;;;1.43;100.00;101622.00;5199897;28;20423;-72
2022/12/04 11:51:36;;;;;;;41.92;16.67;;;;;;;1.47;100.00;101630.63;5202797;28;20023;-72
2022/12/04 11:54:19;;;;;;;51.90;20.70;;;;;;;1.40;100.00;101623.97;5202401;28;20091;-72
2022/12/04 11:56:58;;;;;;;49.60;20.33;;;;;;;1.43;100.00;101619.38;5201279;28;20040;-71